createdAt,value
2022-12-17T00:01:46.057Z,3.57
2022-12-17T00:04:31.646Z,3.34
2022-12-17T00:07:17.289Z,3.29
2022-12-17T00:10:02.823Z,3.31
2022-12-17T00:12:48.498Z,2.72
2022-12-17T00:15:34.096Z,2.97
2022-12-17T00:18:23.692Z,2.23
2022-12-17T00:21:13.749Z,2.55
2022-12-17T00:23:59.434Z,2.51
2022-12-17T00:26:45.014Z,2.45
2022-12-17T00:29:30.455Z,2.49
2022-12-17T00:32:16.063Z,2.23
2022-12-17T00:35:01.538Z,2.14
2022-12-17T00:37:47.127Z,2.43
2022-12-17T00:40:32.759Z,2.49
2022-12-17T00:43:24.288Z,1.88
2022-12-17T00:46:10.265Z,2.13
2022-12-17T00:48:56.019Z,2.17
2022-12-17T00:51:42.705Z,2.71
2022-12-17T00:54:27.941Z,2.98
2022-12-17T00:57:13.523Z,2.81
2022-12-17T00:59:58.963Z,2.71
2022-12-17T01:02:45.209Z,3.07
2022-12-17T01:05:31.350Z,2.20
2022-12-17T01:08:25.130Z,2.72
2022-12-17T01:11:10.501Z,2.41
2022-12-17T01:13:56.586Z,2.30
2022-12-17T01:16:42.247Z,2.64
2022-12-17T01:19:27.985Z,2.13
2022-12-17T01:22:13.682Z,2.35
2022-12-17T01:24:59.231Z,3.06
2022-12-17T01:27:44.942Z,3.56
2022-12-17T01:30:30.336Z,3.09
2022-12-17T01:33:23.044Z,3.04
2022-12-17T01:36:08.758Z,2.87
2022-12-17T01:38:54.332Z,3.12
2022-12-17T01:41:39.876Z,3.12
2022-12-17T01:45:02.422Z,3.02
2022-12-17T01:47:51.873Z,2.98
2022-12-17T01:50:37.852Z,2.65
2022-12-17T01:53:24.963Z,2.47
2022-12-17T01:56:10.656Z,2.05
2022-12-17T01:58:56.029Z,2.51
2022-12-17T02:01:41.357Z,2.36
2022-12-17T02:04:40.925Z,2.33
2022-12-17T02:07:44.785Z,2.29
2022-12-17T02:10:39.135Z,2.37
2022-12-17T02:13:40.221Z,1.97
2022-12-17T02:16:35.064Z,1.95
2022-12-17T02:19:34.882Z,2.50
2022-12-17T02:22:26.712Z,2.41
2022-12-17T02:25:19.013Z,3.08
2022-12-17T02:28:04.371Z,2.78
2022-12-17T02:30:50.738Z,2.13
2022-12-17T02:33:36.439Z,3.10
2022-12-17T02:36:24.666Z,2.88
2022-12-17T02:39:09.701Z,3.30
2022-12-17T02:42:08.371Z,2.68
2022-12-17T02:44:53.729Z,2.95
2022-12-17T02:47:41.694Z,2.86
2022-12-17T02:50:27.344Z,2.59
2022-12-17T02:53:13.119Z,2.41
2022-12-17T02:55:58.679Z,2.81
2022-12-17T02:58:44.159Z,2.10
2022-12-17T03:01:29.885Z,2.17
2022-12-17T03:04:15.392Z,2.65
2022-12-17T03:07:01.050Z,2.21
2022-12-17T03:09:46.604Z,2.49
2022-12-17T03:12:32.110Z,1.84
2022-12-17T03:15:17.877Z,2.30
2022-12-17T03:18:03.428Z,2.45
2022-12-17T03:20:48.689Z,1.72
2022-12-17T03:23:34.847Z,1.82
2022-12-17T03:26:21.677Z,1.49
2022-12-17T03:29:07.942Z,1.84
2022-12-17T03:31:53.912Z,2.12
2022-12-17T03:34:39.475Z,1.55
2022-12-17T03:37:25.196Z,1.83
2022-12-17T03:40:10.760Z,1.65
2022-12-17T03:42:56.405Z,1.36
2022-12-17T03:45:42.143Z,1.19
2022-12-17T03:48:30.222Z,1.47
2022-12-17T03:51:15.861Z,1.23
2022-12-17T03:54:01.427Z,1.71
2022-12-17T03:56:47.376Z,1.71
2022-12-17T03:59:33.080Z,1.61
2022-12-17T04:02:18.815Z,1.60
2022-12-17T04:05:04.356Z,1.61
2022-12-17T04:07:49.767Z,1.56
2022-12-17T04:10:35.256Z,1.84
2022-12-17T04:13:20.852Z,1.82
2022-12-17T04:16:06.385Z,1.23
2022-12-17T04:18:52.043Z,1.35
2022-12-17T04:21:37.556Z,1.73
2022-12-17T04:24:23.081Z,2.18
2022-12-17T04:27:08.759Z,2.05
2022-12-17T04:29:55.307Z,2.22
2022-12-17T04:32:40.834Z,1.61
2022-12-17T04:35:26.362Z,1.45
2022-12-17T04:38:11.904Z,2.01
2022-12-17T04:40:57.590Z,2.11
2022-12-17T04:43:43.117Z,1.47
2022-12-17T04:46:28.890Z,2.08
2022-12-17T04:49:14.538Z,2.41
2022-12-17T04:52:00.082Z,1.97
2022-12-17T04:54:45.778Z,2.17
2022-12-17T04:57:31.240Z,2.30
2022-12-17T05:00:16.870Z,2.05
2022-12-17T05:03:02.653Z,2.30
2022-12-17T05:05:47.983Z,2.46
2022-12-17T05:08:36.900Z,2.65
2022-12-17T05:11:26.824Z,1.83
2022-12-17T05:14:12.370Z,2.42
2022-12-17T05:16:57.950Z,2.19
2022-12-17T05:19:43.711Z,2.19
2022-12-17T05:22:29.177Z,1.82
2022-12-17T05:25:14.715Z,1.46
2022-12-17T05:28:00.151Z,1.36
2022-12-17T05:30:45.790Z,0.86
2022-12-17T05:33:31.394Z,1.13
2022-12-17T05:36:18.925Z,1.50
2022-12-17T05:39:04.549Z,1.45
2022-12-17T05:41:50.155Z,1.34
2022-12-17T05:44:35.691Z,0.93
2022-12-17T05:47:21.275Z,0.94
2022-12-17T05:50:06.791Z,1.12
2022-12-17T05:52:52.507Z,1.11
2022-12-17T05:55:38.126Z,1.75
2022-12-17T05:58:25.255Z,1.34
2022-12-17T06:01:18.007Z,1.49
2022-12-17T06:04:03.812Z,1.19
2022-12-17T06:06:49.528Z,1.36
2022-12-17T06:09:34.836Z,1.68
2022-12-17T06:12:20.928Z,1.27
2022-12-17T06:15:06.185Z,0.90
2022-12-17T06:17:51.838Z,0.70
2022-12-17T06:20:37.902Z,1.22
2022-12-17T06:23:25.369Z,1.18
2022-12-17T06:26:14.941Z,1.13
2022-12-17T06:29:01.321Z,1.63
2022-12-17T06:31:46.889Z,1.22
2022-12-17T06:34:32.531Z,1.93
2022-12-17T06:37:17.863Z,2.15
2022-12-17T06:40:03.318Z,1.45
2022-12-17T06:42:48.927Z,2.14
2022-12-17T06:45:34.445Z,2.07
2022-12-17T06:48:23.512Z,2.36
2022-12-17T06:51:09.187Z,2.18
2022-12-17T06:53:54.743Z,2.70
2022-12-17T06:56:40.430Z,1.31
2022-12-17T06:59:26.078Z,1.43
2022-12-17T07:02:11.697Z,1.49
2022-12-17T07:04:57.299Z,1.81
2022-12-17T07:07:42.818Z,1.63
2022-12-17T07:10:28.451Z,1.89
2022-12-17T07:13:13.983Z,2.11
2022-12-17T07:15:59.578Z,1.95
2022-12-17T07:18:45.143Z,1.60
2022-12-17T07:21:30.703Z,2.21
2022-12-17T07:24:16.279Z,1.59
2022-12-17T07:27:01.795Z,1.82
2022-12-17T07:29:47.352Z,1.52
2022-12-17T07:32:32.932Z,1.79
2022-12-17T07:35:18.441Z,1.60
2022-12-17T07:38:04.013Z,1.51
2022-12-17T07:40:49.607Z,0.90
2022-12-17T07:43:35.405Z,1.53
2022-12-17T07:46:21.216Z,1.27
2022-12-17T07:49:06.735Z,1.31
2022-12-17T07:51:52.419Z,1.46
2022-12-17T07:54:38.012Z,1.22
2022-12-17T07:57:23.425Z,1.64
2022-12-17T08:00:09.205Z,1.41
2022-12-17T08:03:05.562Z,1.70
2022-12-17T08:05:51.241Z,1.51
2022-12-17T08:08:36.673Z,1.99
2022-12-17T08:11:22.296Z,1.56
2022-12-17T08:14:07.860Z,1.93
2022-12-17T08:16:53.420Z,1.13
2022-12-17T08:19:39.524Z,1.55
2022-12-17T08:22:25.075Z,1.85
2022-12-17T08:25:10.772Z,1.47
2022-12-17T08:27:56.356Z,1.52
2022-12-17T08:30:42.746Z,1.68
2022-12-17T08:33:41.997Z,1.97
2022-12-17T08:36:28.039Z,1.00
2022-12-17T08:39:24.363Z,1.32
2022-12-17T08:42:09.930Z,1.69
2022-12-17T08:44:55.580Z,1.42
2022-12-17T08:47:42.753Z,1.18
2022-12-17T08:50:28.407Z,1.42
2022-12-17T08:53:21.448Z,1.24
2022-12-17T08:56:07.045Z,1.53
2022-12-17T08:58:58.679Z,0.97
2022-12-17T09:01:44.612Z,0.90
2022-12-17T09:04:30.065Z,1.40
2022-12-17T09:07:15.723Z,2.44
2022-12-17T09:10:01.040Z,1.97
2022-12-17T09:12:46.725Z,2.32
2022-12-17T09:15:32.266Z,2.57
2022-12-17T09:18:17.835Z,2.28
2022-12-17T09:21:03.326Z,2.22
2022-12-17T09:23:48.591Z,2.06
2022-12-17T09:26:34.186Z,2.74
2022-12-17T09:29:19.833Z,2.08
2022-12-17T09:32:05.227Z,2.50
2022-12-17T09:34:50.680Z,2.21
2022-12-17T09:37:36.314Z,2.29
2022-12-17T09:40:21.883Z,2.88
2022-12-17T09:43:22.122Z,2.37
2022-12-17T09:46:47.493Z,2.85
2022-12-17T09:49:45.125Z,2.66
2022-12-17T09:52:38.118Z,2.77
2022-12-17T09:55:39.891Z,2.35
2022-12-17T09:58:25.754Z,2.11
2022-12-17T10:01:11.525Z,2.46
2022-12-17T10:04:04.828Z,3.23
2022-12-17T10:06:50.000Z,1.70
2022-12-17T10:09:37.135Z,2.82
2022-12-17T10:12:35.498Z,2.60
2022-12-17T10:15:21.552Z,2.87
2022-12-17T10:18:07.118Z,2.72
2022-12-17T10:20:57.372Z,2.37
2022-12-17T10:23:47.411Z,3.20
2022-12-17T10:26:47.164Z,2.60
2022-12-17T10:29:47.069Z,2.86
2022-12-17T10:32:33.532Z,3.38
2022-12-17T10:35:20.211Z,3.09
2022-12-17T10:38:05.425Z,3.62
2022-12-17T10:40:52.243Z,2.96
2022-12-17T10:43:58.476Z,2.73
2022-12-17T10:46:47.852Z,2.84
2022-12-17T10:49:38.869Z,3.02
2022-12-17T10:52:34.058Z,3.05
2022-12-17T10:55:22.331Z,3.15
2022-12-17T10:58:09.493Z,2.98
2022-12-17T11:01:03.813Z,3.24
2022-12-17T11:03:55.015Z,3.44
2022-12-17T11:06:49.300Z,3.21
2022-12-17T11:09:55.846Z,2.62
2022-12-17T11:12:46.458Z,2.57
2022-12-17T11:15:51.757Z,2.57
2022-12-17T11:18:42.055Z,2.49
2022-12-17T11:21:40.326Z,2.50
2022-12-17T11:24:32.471Z,2.86
2022-12-17T11:27:18.274Z,2.21
2022-12-17T11:30:04.108Z,3.08
2022-12-17T11:33:04.161Z,4.05
2022-12-17T11:35:58.624Z,3.82
2022-12-17T11:38:51.632Z,3.03
2022-12-17T11:41:42.480Z,3.31
2022-12-17T11:45:18.495Z,3.68
2022-12-17T11:48:12.383Z,2.69
2022-12-17T11:51:15.593Z,3.64
2022-12-17T11:54:20.109Z,3.70
2022-12-17T11:57:20.170Z,3.66
2022-12-17T12:00:20.658Z,4.15
2022-12-17T12:03:54.136Z,3.66
2022-12-17T12:06:53.519Z,3.05
2022-12-17T12:10:07.011Z,3.59
2022-12-17T12:13:01.737Z,3.65
2022-12-17T12:16:13.544Z,3.91
2022-12-17T12:19:14.055Z,3.25
2022-12-17T12:22:07.788Z,3.76
2022-12-17T12:25:00.931Z,4.24
2022-12-17T12:28:39.117Z,3.36
2022-12-17T12:31:36.272Z,3.98
2022-12-17T12:34:31.728Z,3.63
2022-12-17T12:37:19.667Z,3.94
2022-12-17T12:40:10.997Z,3.99
2022-12-17T12:43:07.438Z,3.43
2022-12-17T12:46:01.847Z,3.55
2022-12-17T12:49:03.973Z,3.39
2022-12-17T12:51:53.328Z,3.62
2022-12-17T12:54:46.175Z,3.72
2022-12-17T12:57:47.788Z,3.97
2022-12-17T13:01:10.303Z,3.34
2022-12-17T13:04:04.495Z,3.49
2022-12-17T13:06:54.363Z,4.04
2022-12-17T13:09:30.893Z,3.36
2022-12-17T13:12:04.955Z,3.57
2022-12-17T13:14:51.339Z,4.15
2022-12-17T13:17:18.133Z,3.26
2022-12-17T13:20:07.803Z,3.24
2022-12-17T13:22:34.776Z,3.21
2022-12-17T13:25:17.734Z,3.59
2022-12-17T13:27:44.699Z,2.94
2022-12-17T13:30:17.562Z,2.56
2022-12-17T13:33:21.301Z,2.66
2022-12-17T13:36:09.375Z,2.14
2022-12-17T13:38:55.057Z,2.30
2022-12-17T13:41:28.340Z,2.37
2022-12-17T13:43:59.415Z,2.46
2022-12-17T13:46:36.513Z,2.84
2022-12-17T13:49:05.196Z,2.32
2022-12-17T13:51:34.987Z,2.30
2022-12-17T13:54:04.087Z,2.50
2022-12-17T13:56:31.917Z,2.30
2022-12-17T13:59:08.000Z,2.04
2022-12-17T14:01:45.356Z,1.53
2022-12-17T14:04:20.929Z,2.39
2022-12-17T14:06:47.893Z,2.25
2022-12-17T14:09:17.554Z,1.26
2022-12-17T14:12:03.232Z,1.97
2022-12-17T14:14:35.056Z,1.59
2022-12-17T14:17:02.119Z,2.32
2022-12-17T14:19:29.574Z,1.83
2022-12-17T14:21:56.802Z,1.69
2022-12-17T14:24:27.312Z,1.88
2022-12-17T14:26:56.557Z,2.30
2022-12-17T14:29:31.285Z,1.77
2022-12-17T14:32:02.197Z,1.91
2022-12-17T14:34:30.200Z,2.15
2022-12-17T14:36:58.997Z,2.07
2022-12-17T14:39:29.005Z,1.54
2022-12-17T14:42:16.657Z,1.98
2022-12-17T14:45:06.452Z,1.96
2022-12-17T14:47:35.136Z,1.86
2022-12-17T14:50:07.260Z,2.00
2022-12-17T14:52:44.122Z,1.94
2022-12-17T14:55:31.586Z,2.00
2022-12-17T14:58:13.765Z,2.20
2022-12-17T15:00:44.932Z,1.82
2022-12-17T15:03:19.747Z,1.62
2022-12-17T15:05:57.155Z,1.84
2022-12-17T15:08:24.024Z,1.25
2022-12-17T15:10:50.925Z,1.32
2022-12-17T15:13:17.584Z,2.14
2022-12-17T15:15:44.468Z,1.45
2022-12-17T15:18:11.197Z,1.29
2022-12-17T15:20:38.143Z,1.48
2022-12-17T15:23:05.009Z,1.36
2022-12-17T15:25:31.647Z,1.50
2022-12-17T15:27:58.495Z,1.63
2022-12-17T15:30:25.251Z,1.78
2022-12-17T15:32:52.106Z,1.59
2022-12-17T15:35:18.903Z,1.85
2022-12-17T15:37:45.730Z,1.41
2022-12-17T15:40:12.513Z,1.57
2022-12-17T15:43:01.655Z,1.85
2022-12-17T15:45:32.833Z,1.49
2022-12-17T15:47:59.524Z,1.59
2022-12-17T15:50:26.659Z,1.76
2022-12-17T15:52:53.520Z,1.35
2022-12-17T15:55:20.221Z,1.06
2022-12-17T15:57:47.075Z,1.94
2022-12-17T16:00:13.993Z,1.52
2022-12-17T16:02:41.011Z,1.56
2022-12-17T16:05:08.542Z,2.08
2022-12-17T16:07:35.595Z,1.83
2022-12-17T16:10:05.335Z,1.70
2022-12-17T16:12:32.976Z,1.84
2022-12-17T16:14:59.812Z,2.07
2022-12-17T16:17:26.475Z,1.82
2022-12-17T16:19:53.351Z,2.33
2022-12-17T16:22:19.990Z,2.31
2022-12-17T16:24:47.169Z,1.91
2022-12-17T16:27:14.719Z,1.63
2022-12-17T16:29:41.614Z,1.58
2022-12-17T16:32:08.255Z,1.91
2022-12-17T16:34:35.238Z,1.85
2022-12-17T16:37:02.085Z,2.01
2022-12-17T16:39:29.137Z,1.75
2022-12-17T16:41:56.017Z,1.61
2022-12-17T16:44:22.690Z,1.31
2022-12-17T16:46:49.712Z,1.84
2022-12-17T16:49:23.664Z,2.25
2022-12-17T16:51:52.095Z,1.53
2022-12-17T16:54:24.401Z,1.54
2022-12-17T16:56:51.447Z,1.21
2022-12-17T16:59:18.943Z,1.62
2022-12-17T17:01:48.369Z,2.35
2022-12-17T17:04:16.717Z,3.31
2022-12-17T17:06:49.521Z,2.50
2022-12-17T17:09:16.869Z,1.97
2022-12-17T17:11:48.142Z,2.50
2022-12-17T17:14:18.019Z,2.50
2022-12-17T17:16:44.884Z,1.99
2022-12-17T17:19:11.834Z,2.58
2022-12-17T17:21:40.683Z,2.48
2022-12-17T17:24:16.748Z,2.45
2022-12-17T17:26:45.467Z,2.45
2022-12-17T17:29:12.178Z,2.15
2022-12-17T17:34:25.993Z,2.99
2022-12-17T17:36:52.664Z,2.41
2022-12-17T17:39:19.518Z,1.90
2022-12-17T17:41:46.433Z,2.50
2022-12-17T17:44:13.464Z,2.10
2022-12-17T17:46:40.909Z,1.70
2022-12-17T17:49:08.849Z,2.14
2022-12-17T17:54:25.108Z,1.72
2022-12-17T17:56:51.924Z,3.02
2022-12-17T17:59:19.593Z,2.11
2022-12-17T18:01:49.655Z,1.39
2022-12-17T18:04:21.628Z,1.63
2022-12-17T18:07:23.068Z,1.98
2022-12-17T18:09:35.551Z,1.91
2022-12-17T18:12:22.410Z,1.03
2022-12-17T18:15:12.435Z,2.16
2022-12-17T18:17:36.049Z,1.71
2022-12-17T18:20:02.822Z,2.13
2022-12-17T18:22:29.653Z,1.48
2022-12-17T18:24:56.266Z,1.93
2022-12-17T18:27:23.099Z,1.79
2022-12-17T18:29:49.782Z,2.11
2022-12-17T18:32:16.679Z,2.51
2022-12-17T18:34:43.708Z,1.65
2022-12-17T18:37:10.646Z,2.47
2022-12-17T18:39:37.497Z,2.18
2022-12-17T18:42:22.829Z,2.72
2022-12-17T18:44:49.685Z,3.22
2022-12-17T18:47:16.768Z,2.82
2022-12-17T18:49:43.646Z,2.24
2022-12-17T18:52:16.236Z,2.03
2022-12-17T18:54:43.893Z,1.66
2022-12-17T18:57:10.756Z,2.08
2022-12-17T18:59:38.632Z,1.56
2022-12-17T19:02:05.625Z,1.44
2022-12-17T19:04:33.202Z,1.52
2022-12-17T19:07:00.154Z,1.02
2022-12-17T19:09:31.376Z,1.67
2022-12-17T19:11:58.378Z,1.83
2022-12-17T19:14:25.924Z,0.81
2022-12-17T19:16:54.784Z,0.82
2022-12-17T19:19:22.691Z,0.81
2022-12-17T19:21:49.980Z,0.65
2022-12-17T19:24:18.583Z,0.53
2022-12-17T19:26:45.936Z,0.86
2022-12-17T19:29:14.108Z,0.67
2022-12-17T19:31:41.063Z,0.18
2022-12-17T19:34:11.370Z,0.55
2022-12-17T19:36:39.013Z,0.60
2022-12-17T19:39:08.001Z,0.85
2022-12-17T19:41:35.210Z,0.79
2022-12-17T19:44:07.171Z,0.91
2022-12-17T19:46:35.229Z,1.13
2022-12-17T19:49:02.547Z,0.80
2022-12-17T19:51:30.769Z,1.06
2022-12-17T19:54:01.793Z,0.93
2022-12-17T19:56:33.609Z,0.65
2022-12-17T19:59:03.345Z,0.98
2022-12-17T20:01:36.797Z,1.11
2022-12-17T20:04:04.607Z,1.06
2022-12-17T20:06:33.391Z,1.49
2022-12-17T20:09:00.981Z,1.77
2022-12-17T20:11:34.204Z,0.70
2022-12-17T20:14:17.942Z,1.35
2022-12-17T20:16:53.322Z,0.62
2022-12-17T20:19:22.548Z,1.14
2022-12-17T20:21:49.600Z,1.10
2022-12-17T20:24:17.327Z,0.99
2022-12-17T20:26:45.308Z,1.19
2022-12-17T20:29:12.428Z,1.04
2022-12-17T20:31:39.921Z,0.48
2022-12-17T20:34:08.773Z,0.32
2022-12-17T20:36:36.211Z,0.81
2022-12-17T20:39:03.620Z,0.77
2022-12-17T20:41:31.632Z,1.30
2022-12-17T20:43:59.118Z,1.43
2022-12-17T20:46:26.096Z,0.85
2022-12-17T20:48:53.629Z,0.76
2022-12-17T20:51:23.593Z,1.23
2022-12-17T20:53:52.162Z,1.34
2022-12-17T20:56:21.759Z,0.86
2022-12-17T20:58:53.082Z,0.96
2022-12-17T21:01:22.016Z,0.81
2022-12-17T21:03:50.651Z,0.78
2022-12-17T21:06:22.152Z,0.45
2022-12-17T21:08:51.655Z,1.43
2022-12-17T21:11:20.499Z,1.00
2022-12-17T21:13:47.416Z,0.83
2022-12-17T21:16:19.120Z,0.61
2022-12-17T21:18:46.051Z,0.69
2022-12-17T21:21:14.447Z,0.88
2022-12-17T21:23:41.536Z,0.26
2022-12-17T21:26:12.197Z,0.92
2022-12-17T21:28:41.619Z,1.01
2022-12-17T21:31:24.709Z,0.77
2022-12-17T21:33:54.219Z,1.12
2022-12-17T21:36:22.434Z,0.41
2022-12-17T21:38:49.717Z,0.70
2022-12-17T21:41:21.920Z,0.32
2022-12-17T21:43:53.242Z,0.44
2022-12-17T21:46:20.262Z,0.46
2022-12-17T21:48:47.581Z,0.39
2022-12-17T21:51:15.285Z,0.33
2022-12-17T21:53:43.781Z,0.75
2022-12-17T21:56:16.647Z,0.77
2022-12-17T21:58:44.963Z,0.47
2022-12-17T22:01:23.830Z,0.94
2022-12-17T22:03:54.128Z,0.97
2022-12-17T22:06:23.945Z,0.56
2022-12-17T22:08:52.768Z,0.94
2022-12-17T22:11:25.909Z,0.85
2022-12-17T22:14:18.979Z,1.15
2022-12-17T22:16:49.719Z,0.78
2022-12-17T22:19:22.517Z,0.90
2022-12-17T22:21:51.067Z,0.38
2022-12-17T22:24:23.069Z,0.90
2022-12-17T22:26:49.894Z,0.56
2022-12-17T22:29:36.660Z,0.28
2022-12-17T22:32:22.410Z,0.27
2022-12-17T22:35:20.852Z,-0.07
2022-12-17T22:40:48.119Z,0.17
2022-12-17T22:44:24.445Z,0.18
2022-12-17T22:44:41.789Z,-0.10
2022-12-17T22:46:17.186Z,-0.55
2022-12-17T22:48:44.641Z,-0.07
2022-12-17T22:51:12.846Z,0.42
2022-12-17T22:53:43.262Z,0.42
2022-12-17T22:56:20.053Z,-0.09
2022-12-17T22:58:57.831Z,0.55
2022-12-17T23:01:24.847Z,1.04
2022-12-17T23:03:55.929Z,1.04
2022-12-17T23:06:23.312Z,0.20
2022-12-17T23:08:50.469Z,0.92
2022-12-17T23:11:24.072Z,0.61
2022-12-17T23:13:51.860Z,0.66
2022-12-17T23:16:19.848Z,0.23
2022-12-17T23:18:48.227Z,0.58
2022-12-17T23:21:20.661Z,0.00
2022-12-17T23:23:47.527Z,0.46
2022-12-17T23:26:18.246Z,0.37
2022-12-17T23:28:45.698Z,0.74
2022-12-17T23:31:17.819Z,0.27
2022-12-17T23:33:45.394Z,0.75
2022-12-17T23:36:14.983Z,1.64
2022-12-17T23:38:42.344Z,1.36
2022-12-17T23:41:11.915Z,0.45
2022-12-17T23:43:40.007Z,0.73
2022-12-17T23:46:08.233Z,0.68
2022-12-17T23:48:42.016Z,0.22
2022-12-17T23:51:12.163Z,0.61
2022-12-17T23:53:39.560Z,1.14
2022-12-17T23:56:12.442Z,1.00
2022-12-17T23:58:41.604Z,0.77
